sensor_id;sensor_type;location;lat;lon;timestamp;P1;durP1;ratioP1;P2;durP2;ratioP2
9809;SDS011;4944;52.514;13.192;2023-12-22T00:02:04;4.47;;;1.40;;
9809;SDS011;4944;52.514;13.192;2023-12-22T00:04:31;5.40;;;1.50;;
9809;SDS011;4944;52.514;13.192;2023-12-22T00:06:59;5.73;;;1.60;;
9809;SDS011;4944;52.514;13.192;2023-12-22T00:09:26;4.43;;;1.60;;
9809;SDS011;4944;52.514;13.192;2023-12-22T00:11:53;2.70;;;1.57;;
9809;SDS011;4944;52.514;13.192;2023-12-22T00:14:20;5.43;;;1.60;;
9809;SDS011;4944;52.514;13.192;2023-12-22T00:16:47;3.87;;;1.67;;
9809;SDS011;4944;52.514;13.192;2023-12-22T00:19:14;9.87;;;2.53;;
9809;SDS011;4944;52.514;13.192;2023-12-22T00:21:41;8.77;;;2.43;;
9809;SDS011;4944;52.514;13.192;2023-12-22T00:24:09;8.73;;;2.13;;
9809;SDS011;4944;52.514;13.192;2023-12-22T00:26:36;6.07;;;2.17;;
9809;SDS011;4944;52.514;13.192;2023-12-22T00:29:02;7.90;;;2.50;;
9809;SDS011;4944;52.514;13.192;2023-12-22T00:31:29;5.17;;;2.23;;
9809;SDS011;4944;52.514;13.192;2023-12-22T00:33:56;6.17;;;2.33;;
9809;SDS011;4944;52.514;13.192;2023-12-22T00:36:23;5.27;;;1.87;;
9809;SDS011;4944;52.514;13.192;2023-12-22T00:38:50;7.47;;;1.93;;
9809;SDS011;4944;52.514;13.192;2023-12-22T00:41:18;6.97;;;2.60;;
9809;SDS011;4944;52.514;13.192;2023-12-22T00:43:45;6.93;;;2.03;;
9809;SDS011;4944;52.514;13.192;2023-12-22T00:46:12;7.03;;;2.30;;
9809;SDS011;4944;52.514;13.192;2023-12-22T00:48:39;7.83;;;2.50;;
9809;SDS011;4944;52.514;13.192;2023-12-22T00:51:06;6.20;;;2.30;;
9809;SDS011;4944;52.514;13.192;2023-12-22T00:53:33;3.87;;;1.83;;
9809;SDS011;4944;52.514;13.192;2023-12-22T00:56:00;4.20;;;1.70;;
9809;SDS011;4944;52.514;13.192;2023-12-22T00:58:29;5.90;;;1.90;;
9809;SDS011;4944;52.514;13.192;2023-12-22T01:00:56;7.10;;;1.97;;
9809;SDS011;4944;52.514;13.192;2023-12-22T01:03:23;6.97;;;1.97;;
9809;SDS011;4944;52.514;13.192;2023-12-22T01:05:50;8.47;;;1.83;;
9809;SDS011;4944;52.514;13.192;2023-12-22T01:08:17;5.47;;;1.70;;
9809;SDS011;4944;52.514;13.192;2023-12-22T01:10:43;3.50;;;1.43;;
9809;SDS011;4944;52.514;13.192;2023-12-22T01:13:10;6.33;;;2.43;;
9809;SDS011;4944;52.514;13.192;2023-12-22T01:15:39;8.10;;;2.00;;
9809;SDS011;4944;52.514;13.192;2023-12-22T01:18:05;5.07;;;1.90;;
9809;SDS011;4944;52.514;13.192;2023-12-22T01:20:32;5.10;;;1.87;;
9809;SDS011;4944;52.514;13.192;2023-12-22T01:22:59;3.97;;;1.83;;
9809;SDS011;4944;52.514;13.192;2023-12-22T01:25:26;3.80;;;1.70;;
9809;SDS011;4944;52.514;13.192;2023-12-22T01:27:53;4.73;;;1.90;;
9809;SDS011;4944;52.514;13.192;2023-12-22T01:30:20;6.83;;;1.80;;
9809;SDS011;4944;52.514;13.192;2023-12-22T01:32:48;4.90;;;1.80;;
9809;SDS011;4944;52.514;13.192;2023-12-22T01:35:15;7.50;;;2.27;;
9809;SDS011;4944;52.514;13.192;2023-12-22T01:37:42;9.10;;;2.00;;
9809;SDS011;4944;52.514;13.192;2023-12-22T01:40:09;9.33;;;2.37;;
9809;SDS011;4944;52.514;13.192;2023-12-22T01:42:36;5.70;;;1.83;;
9809;SDS011;4944;52.514;13.192;2023-12-22T01:45:03;4.37;;;1.57;;
9809;SDS011;4944;52.514;13.192;2023-12-22T01:47:31;8.03;;;1.67;;
9809;SDS011;4944;52.514;13.192;2023-12-22T01:49:59;5.67;;;2.03;;
9809;SDS011;4944;52.514;13.192;2023-12-22T01:52:27;8.47;;;1.70;;
9809;SDS011;4944;52.514;13.192;2023-12-22T01:54:54;6.93;;;2.23;;
9809;SDS011;4944;52.514;13.192;2023-12-22T01:57:21;3.73;;;1.77;;
9809;SDS011;4944;52.514;13.192;2023-12-22T01:59:48;6.77;;;1.73;;
9809;SDS011;4944;52.514;13.192;2023-12-22T02:02:15;5.87;;;1.63;;
9809;SDS011;4944;52.514;13.192;2023-12-22T02:04:43;6.30;;;2.10;;
9809;SDS011;4944;52.514;13.192;2023-12-22T02:07:13;7.03;;;2.17;;
9809;SDS011;4944;52.514;13.192;2023-12-22T02:09:40;8.73;;;2.27;;
9809;SDS011;4944;52.514;13.192;2023-12-22T02:12:07;7.43;;;2.03;;
9809;SDS011;4944;52.514;13.192;2023-12-22T02:14:34;4.37;;;1.60;;
9809;SDS011;4944;52.514;13.192;2023-12-22T02:17:02;6.63;;;2.07;;
9809;SDS011;4944;52.514;13.192;2023-12-22T02:19:40;8.93;;;2.43;;
9809;SDS011;4944;52.514;13.192;2023-12-22T02:22:08;8.73;;;2.23;;
9809;SDS011;4944;52.514;13.192;2023-12-22T02:24:38;5.30;;;2.27;;
9809;SDS011;4944;52.514;13.192;2023-12-22T02:27:06;4.13;;;1.80;;
9809;SDS011;4944;52.514;13.192;2023-12-22T02:29:41;5.60;;;1.70;;
9809;SDS011;4944;52.514;13.192;2023-12-22T02:32:17;6.40;;;1.80;;
9809;SDS011;4944;52.514;13.192;2023-12-22T02:34:49;4.10;;;1.50;;
9809;SDS011;4944;52.514;13.192;2023-12-22T02:37:17;2.40;;;1.30;;
9809;SDS011;4944;52.514;13.192;2023-12-22T02:39:47;4.33;;;1.40;;
9809;SDS011;4944;52.514;13.192;2023-12-22T02:42:15;4.60;;;1.23;;
9809;SDS011;4944;52.514;13.192;2023-12-22T02:44:43;4.20;;;1.73;;
9809;SDS011;4944;52.514;13.192;2023-12-22T02:47:10;4.13;;;1.60;;
9809;SDS011;4944;52.514;13.192;2023-12-22T02:49:37;4.37;;;1.57;;
9809;SDS011;4944;52.514;13.192;2023-12-22T02:52:04;3.03;;;1.20;;
9809;SDS011;4944;52.514;13.192;2023-12-22T02:54:31;2.17;;;1.13;;
9809;SDS011;4944;52.514;13.192;2023-12-22T02:57:00;2.60;;;1.03;;
9809;SDS011;4944;52.514;13.192;2023-12-22T02:59:26;7.50;;;1.40;;
9809;SDS011;4944;52.514;13.192;2023-12-22T03:01:53;1.40;;;0.87;;
9809;SDS011;4944;52.514;13.192;2023-12-22T03:04:20;3.73;;;1.43;;
9809;SDS011;4944;52.514;13.192;2023-12-22T03:06:47;4.87;;;1.37;;
9809;SDS011;4944;52.514;13.192;2023-12-22T03:09:14;1.90;;;0.97;;
9809;SDS011;4944;52.514;13.192;2023-12-22T03:11:41;2.33;;;1.20;;
9809;SDS011;4944;52.514;13.192;2023-12-22T03:14:10;5.27;;;1.20;;
9809;SDS011;4944;52.514;13.192;2023-12-22T03:16:36;3.67;;;1.23;;
9809;SDS011;4944;52.514;13.192;2023-12-22T03:19:03;3.57;;;1.40;;
9809;SDS011;4944;52.514;13.192;2023-12-22T03:21:30;4.23;;;1.50;;
9809;SDS011;4944;52.514;13.192;2023-12-22T03:23:57;3.43;;;1.53;;
9809;SDS011;4944;52.514;13.192;2023-12-22T03:26:26;4.33;;;1.20;;
9809;SDS011;4944;52.514;13.192;2023-12-22T03:28:53;5.23;;;1.33;;
9809;SDS011;4944;52.514;13.192;2023-12-22T03:31:30;7.07;;;1.70;;
9809;SDS011;4944;52.514;13.192;2023-12-22T03:33:57;4.43;;;1.67;;
9809;SDS011;4944;52.514;13.192;2023-12-22T03:36:24;5.07;;;1.30;;
9809;SDS011;4944;52.514;13.192;2023-12-22T03:38:51;5.40;;;1.90;;
9809;SDS011;4944;52.514;13.192;2023-12-22T03:41:18;4.20;;;1.60;;
9809;SDS011;4944;52.514;13.192;2023-12-22T03:43:45;5.07;;;1.23;;
9809;SDS011;4944;52.514;13.192;2023-12-22T03:46:12;2.93;;;1.40;;
9809;SDS011;4944;52.514;13.192;2023-12-22T03:48:40;6.60;;;1.63;;
9809;SDS011;4944;52.514;13.192;2023-12-22T03:51:07;7.30;;;1.47;;
9809;SDS011;4944;52.514;13.192;2023-12-22T03:53:35;5.40;;;1.80;;
9809;SDS011;4944;52.514;13.192;2023-12-22T03:56:02;3.97;;;1.40;;
9809;SDS011;4944;52.514;13.192;2023-12-22T03:58:29;5.77;;;1.53;;
9809;SDS011;4944;52.514;13.192;2023-12-22T04:00:56;2.83;;;1.00;;
9809;SDS011;4944;52.514;13.192;2023-12-22T04:03:23;1.23;;;0.80;;
9809;SDS011;4944;52.514;13.192;2023-12-22T04:05:52;1.67;;;0.70;;
9809;SDS011;4944;52.514;13.192;2023-12-22T04:08:19;1.47;;;0.80;;
9809;SDS011;4944;52.514;13.192;2023-12-22T04:10:46;3.27;;;0.30;;
9809;SDS011;4944;52.514;13.192;2023-12-22T04:13:13;3.23;;;0.80;;
9809;SDS011;4944;52.514;13.192;2023-12-22T04:15:40;2.77;;;1.00;;
9809;SDS011;4944;52.514;13.192;2023-12-22T04:18:07;1.63;;;0.67;;
9809;SDS011;4944;52.514;13.192;2023-12-22T04:20:33;2.73;;;0.63;;
9809;SDS011;4944;52.514;13.192;2023-12-22T04:23:02;4.10;;;0.97;;
9809;SDS011;4944;52.514;13.192;2023-12-22T04:25:30;4.37;;;1.00;;
9809;SDS011;4944;52.514;13.192;2023-12-22T04:27:56;1.30;;;0.80;;
9809;SDS011;4944;52.514;13.192;2023-12-22T04:30:23;2.20;;;0.53;;
9809;SDS011;4944;52.514;13.192;2023-12-22T04:32:52;2.63;;;1.03;;
9809;SDS011;4944;52.514;13.192;2023-12-22T04:35:18;2.37;;;0.67;;
9809;SDS011;4944;52.514;13.192;2023-12-22T04:37:45;1.93;;;1.07;;
9809;SDS011;4944;52.514;13.192;2023-12-22T04:40:14;4.87;;;1.20;;
9809;SDS011;4944;52.514;13.192;2023-12-22T04:42:41;4.73;;;1.33;;
9809;SDS011;4944;52.514;13.192;2023-12-22T04:45:08;4.30;;;1.10;;
9809;SDS011;4944;52.514;13.192;2023-12-22T04:47:35;2.03;;;0.90;;
9809;SDS011;4944;52.514;13.192;2023-12-22T04:50:02;2.50;;;1.07;;
9809;SDS011;4944;52.514;13.192;2023-12-22T04:52:29;1.73;;;0.70;;
9809;SDS011;4944;52.514;13.192;2023-12-22T04:54:56;3.60;;;1.07;;
9809;SDS011;4944;52.514;13.192;2023-12-22T04:57:24;1.70;;;0.93;;
9809;SDS011;4944;52.514;13.192;2023-12-22T04:59:51;2.27;;;0.80;;
9809;SDS011;4944;52.514;13.192;2023-12-22T05:02:18;2.77;;;0.87;;
9809;SDS011;4944;52.514;13.192;2023-12-22T05:04:47;1.53;;;0.60;;
9809;SDS011;4944;52.514;13.192;2023-12-22T05:07:14;0.53;;;0.50;;
9809;SDS011;4944;52.514;13.192;2023-12-22T05:09:41;1.73;;;0.50;;
9809;SDS011;4944;52.514;13.192;2023-12-22T05:12:08;1.07;;;0.50;;
9809;SDS011;4944;52.514;13.192;2023-12-22T05:14:37;1.03;;;0.63;;
9809;SDS011;4944;52.514;13.192;2023-12-22T05:17:03;1.50;;;0.30;;
9809;SDS011;4944;52.514;13.192;2023-12-22T05:19:30;0.83;;;0.50;;
9809;SDS011;4944;52.514;13.192;2023-12-22T05:21:57;3.33;;;0.83;;
9809;SDS011;4944;52.514;13.192;2023-12-22T05:24:25;1.93;;;0.50;;
9809;SDS011;4944;52.514;13.192;2023-12-22T05:26:52;0.73;;;0.73;;
9809;SDS011;4944;52.514;13.192;2023-12-22T05:29:19;3.13;;;0.80;;
9809;SDS011;4944;52.514;13.192;2023-12-22T05:31:48;3.43;;;0.70;;
9809;SDS011;4944;52.514;13.192;2023-12-22T05:34:15;2.90;;;0.90;;
9809;SDS011;4944;52.514;13.192;2023-12-22T05:36:42;2.27;;;0.80;;
9809;SDS011;4944;52.514;13.192;2023-12-22T05:39:09;2.40;;;0.77;;
9809;SDS011;4944;52.514;13.192;2023-12-22T05:41:36;4.07;;;1.23;;
9809;SDS011;4944;52.514;13.192;2023-12-22T05:44:03;0.97;;;0.63;;
9809;SDS011;4944;52.514;13.192;2023-12-22T05:46:31;1.50;;;0.83;;
9809;SDS011;4944;52.514;13.192;2023-12-22T05:49:02;2.63;;;1.00;;
9809;SDS011;4944;52.514;13.192;2023-12-22T05:51:35;2.07;;;0.70;;
9809;SDS011;4944;52.514;13.192;2023-12-22T05:54:02;3.73;;;0.80;;
9809;SDS011;4944;52.514;13.192;2023-12-22T05:56:30;2.93;;;1.00;;
9809;SDS011;4944;52.514;13.192;2023-12-22T05:58:57;2.23;;;0.67;;
9809;SDS011;4944;52.514;13.192;2023-12-22T06:01:24;3.13;;;0.70;;
9809;SDS011;4944;52.514;13.192;2023-12-22T06:03:52;1.83;;;0.70;;
9809;SDS011;4944;52.514;13.192;2023-12-22T06:06:21;3.97;;;1.10;;
9809;SDS011;4944;52.514;13.192;2023-12-22T06:08:48;5.03;;;1.30;;
9809;SDS011;4944;52.514;13.192;2023-12-22T06:11:15;1.57;;;0.73;;
9809;SDS011;4944;52.514;13.192;2023-12-22T06:13:42;1.87;;;0.73;;
9809;SDS011;4944;52.514;13.192;2023-12-22T06:16:10;1.87;;;0.60;;
9809;SDS011;4944;52.514;13.192;2023-12-22T06:18:38;1.47;;;0.60;;
9809;SDS011;4944;52.514;13.192;2023-12-22T06:21:05;1.40;;;0.40;;
9809;SDS011;4944;52.514;13.192;2023-12-22T06:23:33;2.67;;;0.50;;
9809;SDS011;4944;52.514;13.192;2023-12-22T06:26:01;1.57;;;0.33;;
9809;SDS011;4944;52.514;13.192;2023-12-22T06:28:28;1.43;;;0.63;;
9809;SDS011;4944;52.514;13.192;2023-12-22T06:30:55;2.10;;;0.67;;
9809;SDS011;4944;52.514;13.192;2023-12-22T06:33:22;1.40;;;0.60;;
9809;SDS011;4944;52.514;13.192;2023-12-22T06:35:48;1.93;;;0.67;;
9809;SDS011;4944;52.514;13.192;2023-12-22T06:38:18;1.43;;;0.60;;
9809;SDS011;4944;52.514;13.192;2023-12-22T06:40:47;1.37;;;0.70;;
9809;SDS011;4944;52.514;13.192;2023-12-22T06:43:14;1.33;;;0.50;;
9809;SDS011;4944;52.514;13.192;2023-12-22T06:45:41;1.13;;;0.40;;
9809;SDS011;4944;52.514;13.192;2023-12-22T06:48:08;0.90;;;0.30;;
9809;SDS011;4944;52.514;13.192;2023-12-22T06:50:35;1.97;;;0.67;;
9809;SDS011;4944;52.514;13.192;2023-12-22T06:53:04;1.93;;;0.80;;
9809;SDS011;4944;52.514;13.192;2023-12-22T06:55:32;2.07;;;0.87;;
9809;SDS011;4944;52.514;13.192;2023-12-22T06:58:01;1.83;;;0.53;;
9809;SDS011;4944;52.514;13.192;2023-12-22T07:00:27;2.20;;;1.03;;
9809;SDS011;4944;52.514;13.192;2023-12-22T07:02:54;1.40;;;0.60;;
9809;SDS011;4944;52.514;13.192;2023-12-22T07:05:32;1.70;;;0.67;;
9809;SDS011;4944;52.514;13.192;2023-12-22T07:08:01;1.30;;;0.67;;
9809;SDS011;4944;52.514;13.192;2023-12-22T07:10:29;2.43;;;0.77;;
9809;SDS011;4944;52.514;13.192;2023-12-22T07:12:56;2.87;;;0.93;;
9809;SDS011;4944;52.514;13.192;2023-12-22T07:15:25;1.33;;;0.60;;
9809;SDS011;4944;52.514;13.192;2023-12-22T07:17:53;3.27;;;0.90;;
9809;SDS011;4944;52.514;13.192;2023-12-22T07:20:20;2.27;;;1.00;;
9809;SDS011;4944;52.514;13.192;2023-12-22T07:22:47;2.10;;;0.87;;
9809;SDS011;4944;52.514;13.192;2023-12-22T07:25:14;3.77;;;1.03;;
9809;SDS011;4944;52.514;13.192;2023-12-22T07:27:41;3.07;;;0.80;;
9809;SDS011;4944;52.514;13.192;2023-12-22T07:30:08;0.80;;;0.70;;
9809;SDS011;4944;52.514;13.192;2023-12-22T07:32:42;2.20;;;0.40;;
9809;SDS011;4944;52.514;13.192;2023-12-22T07:35:10;2.40;;;0.57;;
9809;SDS011;4944;52.514;13.192;2023-12-22T07:37:37;3.10;;;0.97;;
9809;SDS011;4944;52.514;13.192;2023-12-22T07:40:04;4.47;;;0.90;;
9809;SDS011;4944;52.514;13.192;2023-12-22T07:42:32;1.60;;;0.77;;
9809;SDS011;4944;52.514;13.192;2023-12-22T07:44:59;1.67;;;0.60;;
9809;SDS011;4944;52.514;13.192;2023-12-22T07:47:26;3.80;;;1.07;;
9809;SDS011;4944;52.514;13.192;2023-12-22T07:49:54;2.10;;;0.70;;
9809;SDS011;4944;52.514;13.192;2023-12-22T07:52:21;2.00;;;1.10;;
9809;SDS011;4944;52.514;13.192;2023-12-22T07:54:48;4.67;;;1.10;;
9809;SDS011;4944;52.514;13.192;2023-12-22T07:57:16;6.50;;;1.30;;
9809;SDS011;4944;52.514;13.192;2023-12-22T07:59:43;2.80;;;1.07;;
9809;SDS011;4944;52.514;13.192;2023-12-22T08:02:09;2.53;;;0.87;;
9809;SDS011;4944;52.514;13.192;2023-12-22T08:04:37;1.47;;;0.90;;
9809;SDS011;4944;52.514;13.192;2023-12-22T08:07:05;0.90;;;0.70;;
9809;SDS011;4944;52.514;13.192;2023-12-22T08:09:32;0.70;;;0.70;;
9809;SDS011;4944;52.514;13.192;2023-12-22T08:11:59;3.00;;;0.50;;
9809;SDS011;4944;52.514;13.192;2023-12-22T08:14:25;1.13;;;0.50;;
9809;SDS011;4944;52.514;13.192;2023-12-22T08:16:52;1.07;;;0.60;;
9809;SDS011;4944;52.514;13.192;2023-12-22T08:19:19;0.40;;;0.30;;
9809;SDS011;4944;52.514;13.192;2023-12-22T08:21:46;1.87;;;0.93;;
9809;SDS011;4944;52.514;13.192;2023-12-22T08:24:15;1.57;;;0.90;;
9809;SDS011;4944;52.514;13.192;2023-12-22T08:26:42;2.33;;;0.70;;
9809;SDS011;4944;52.514;13.192;2023-12-22T08:29:09;1.10;;;1.00;;
9809;SDS011;4944;52.514;13.192;2023-12-22T08:31:36;2.00;;;0.80;;
9809;SDS011;4944;52.514;13.192;2023-12-22T08:34:03;1.10;;;0.70;;
9809;SDS011;4944;52.514;13.192;2023-12-22T08:36:30;4.07;;;0.87;;
9809;SDS011;4944;52.514;13.192;2023-12-22T08:38:57;2.53;;;0.70;;
9809;SDS011;4944;52.514;13.192;2023-12-22T08:41:25;2.27;;;0.83;;
9809;SDS011;4944;52.514;13.192;2023-12-22T08:43:53;2.83;;;0.80;;
9809;SDS011;4944;52.514;13.192;2023-12-22T08:46:19;3.67;;;0.87;;
9809;SDS011;4944;52.514;13.192;2023-12-22T08:48:46;3.57;;;0.80;;
9809;SDS011;4944;52.514;13.192;2023-12-22T08:51:13;2.00;;;0.70;;
9809;SDS011;4944;52.514;13.192;2023-12-22T08:53:40;4.27;;;0.97;;
9809;SDS011;4944;52.514;13.192;2023-12-22T08:56:07;1.63;;;0.93;;
9809;SDS011;4944;52.514;13.192;2023-12-22T08:58:35;4.10;;;1.10;;
9809;SDS011;4944;52.514;13.192;2023-12-22T09:01:02;2.27;;;1.00;;
9809;SDS011;4944;52.514;13.192;2023-12-22T09:03:30;2.43;;;0.97;;
9809;SDS011;4944;52.514;13.192;2023-12-22T09:06:00;1.97;;;1.10;;
9809;SDS011;4944;52.514;13.192;2023-12-22T09:08:28;2.27;;;0.83;;
9809;SDS011;4944;52.514;13.192;2023-12-22T09:10:55;2.20;;;0.90;;
9809;SDS011;4944;52.514;13.192;2023-12-22T09:13:21;4.23;;;1.30;;
9809;SDS011;4944;52.514;13.192;2023-12-22T09:15:51;4.57;;;1.80;;
9809;SDS011;4944;52.514;13.192;2023-12-22T09:18:18;4.40;;;1.60;;
9809;SDS011;4944;52.514;13.192;2023-12-22T09:20:45;4.70;;;1.40;;
9809;SDS011;4944;52.514;13.192;2023-12-22T09:23:12;3.50;;;1.40;;
9809;SDS011;4944;52.514;13.192;2023-12-22T09:25:39;7.40;;;1.87;;
9809;SDS011;4944;52.514;13.192;2023-12-22T09:28:06;8.23;;;2.00;;
9809;SDS011;4944;52.514;13.192;2023-12-22T09:30:33;10.17;;;1.90;;
9809;SDS011;4944;52.514;13.192;2023-12-22T09:33:01;9.23;;;2.50;;
9809;SDS011;4944;52.514;13.192;2023-12-22T09:35:29;8.00;;;1.93;;
9809;SDS011;4944;52.514;13.192;2023-12-22T09:37:56;6.33;;;1.60;;
9809;SDS011;4944;52.514;13.192;2023-12-22T09:40:23;7.13;;;1.90;;
9809;SDS011;4944;52.514;13.192;2023-12-22T09:42:50;1.93;;;1.07;;
9809;SDS011;4944;52.514;13.192;2023-12-22T09:45:21;5.87;;;1.57;;
9809;SDS011;4944;52.514;13.192;2023-12-22T09:47:48;4.07;;;1.53;;
9809;SDS011;4944;52.514;13.192;2023-12-22T09:50:20;8.53;;;1.73;;
9809;SDS011;4944;52.514;13.192;2023-12-22T09:52:48;6.40;;;1.40;;
9809;SDS011;4944;52.514;13.192;2023-12-22T09:55:15;4.30;;;1.70;;
9809;SDS011;4944;52.514;13.192;2023-12-22T09:57:43;7.70;;;1.90;;
9809;SDS011;4944;52.514;13.192;2023-12-22T10:00:12;6.57;;;1.70;;
9809;SDS011;4944;52.514;13.192;2023-12-22T10:02:40;5.40;;;1.70;;
9809;SDS011;4944;52.514;13.192;2023-12-22T10:05:08;8.23;;;2.00;;
9809;SDS011;4944;52.514;13.192;2023-12-22T10:07:36;5.03;;;1.67;;
9809;SDS011;4944;52.514;13.192;2023-12-22T10:10:04;8.60;;;2.00;;
9809;SDS011;4944;52.514;13.192;2023-12-22T10:12:34;4.33;;;1.57;;
9809;SDS011;4944;52.514;13.192;2023-12-22T10:15:05;6.57;;;1.90;;
9809;SDS011;4944;52.514;13.192;2023-12-22T10:17:34;4.93;;;1.57;;
9809;SDS011;4944;52.514;13.192;2023-12-22T10:20:02;6.90;;;1.63;;
9809;SDS011;4944;52.514;13.192;2023-12-22T10:22:29;7.90;;;2.00;;
9809;SDS011;4944;52.514;13.192;2023-12-22T10:24:57;4.60;;;1.63;;
9809;SDS011;4944;52.514;13.192;2023-12-22T10:27:24;9.47;;;2.00;;
9809;SDS011;4944;52.514;13.192;2023-12-22T10:29:53;8.10;;;1.90;;
9809;SDS011;4944;52.514;13.192;2023-12-22T10:32:21;6.33;;;1.73;;
9809;SDS011;4944;52.514;13.192;2023-12-22T10:34:48;4.30;;;2.07;;
9809;SDS011;4944;52.514;13.192;2023-12-22T10:37:17;4.50;;;1.80;;
9809;SDS011;4944;52.514;13.192;2023-12-22T10:39:46;9.07;;;2.17;;
9809;SDS011;4944;52.514;13.192;2023-12-22T10:42:15;8.57;;;1.90;;
9809;SDS011;4944;52.514;13.192;2023-12-22T10:44:43;11.17;;;2.03;;
9809;SDS011;4944;52.514;13.192;2023-12-22T10:47:11;6.50;;;1.90;;
9809;SDS011;4944;52.514;13.192;2023-12-22T10:49:38;3.77;;;1.60;;
9809;SDS011;4944;52.514;13.192;2023-12-22T10:52:05;7.77;;;1.40;;
9809;SDS011;4944;52.514;13.192;2023-12-22T10:54:32;5.23;;;1.83;;
9809;SDS011;4944;52.514;13.192;2023-12-22T10:57:02;6.63;;;1.87;;
9809;SDS011;4944;52.514;13.192;2023-12-22T10:59:30;5.47;;;1.40;;
9809;SDS011;4944;52.514;13.192;2023-12-22T11:02:01;4.67;;;1.77;;
9809;SDS011;4944;52.514;13.192;2023-12-22T11:04:29;6.37;;;1.70;;
9809;SDS011;4944;52.514;13.192;2023-12-22T11:06:58;6.87;;;1.30;;
9809;SDS011;4944;52.514;13.192;2023-12-22T11:09:30;5.13;;;1.83;;
9809;SDS011;4944;52.514;13.192;2023-12-22T11:11:58;5.43;;;2.13;;
9809;SDS011;4944;52.514;13.192;2023-12-22T11:14:27;9.00;;;2.40;;
9809;SDS011;4944;52.514;13.192;2023-12-22T11:16:58;4.10;;;1.60;;
9809;SDS011;4944;52.514;13.192;2023-12-22T11:19:27;8.47;;;1.90;;
9809;SDS011;4944;52.514;13.192;2023-12-22T11:21:55;4.60;;;1.60;;
9809;SDS011;4944;52.514;13.192;2023-12-22T11:24:25;5.00;;;1.43;;
9809;SDS011;4944;52.514;13.192;2023-12-22T11:26:54;6.67;;;1.70;;
9809;SDS011;4944;52.514;13.192;2023-12-22T11:29:25;4.17;;;1.77;;
9809;SDS011;4944;52.514;13.192;2023-12-22T11:31:53;4.13;;;1.17;;
9809;SDS011;4944;52.514;13.192;2023-12-22T11:34:23;4.97;;;1.70;;
9809;SDS011;4944;52.514;13.192;2023-12-22T11:36:53;4.70;;;1.80;;
9809;SDS011;4944;52.514;13.192;2023-12-22T11:39:20;7.20;;;1.97;;
9809;SDS011;4944;52.514;13.192;2023-12-22T11:41:48;2.93;;;1.30;;
9809;SDS011;4944;52.514;13.192;2023-12-22T11:44:17;3.03;;;0.93;;
9809;SDS011;4944;52.514;13.192;2023-12-22T11:46:44;4.77;;;1.50;;
9809;SDS011;4944;52.514;13.192;2023-12-22T11:49:12;4.50;;;1.47;;
9809;SDS011;4944;52.514;13.192;2023-12-22T11:51:40;6.83;;;1.53;;
9809;SDS011;4944;52.514;13.192;2023-12-22T11:57:11;3.43;;;1.50;;
9809;SDS011;4944;52.514;13.192;2023-12-22T11:59:56;3.83;;;1.33;;
9809;SDS011;4944;52.514;13.192;2023-12-22T12:02:24;5.40;;;1.73;;
9809;SDS011;4944;52.514;13.192;2023-12-22T12:04:52;4.40;;;1.30;;
9809;SDS011;4944;52.514;13.192;2023-12-22T12:07:37;5.73;;;1.60;;
9809;SDS011;4944;52.514;13.192;2023-12-22T12:10:06;3.53;;;1.33;;
9809;SDS011;4944;52.514;13.192;2023-12-22T12:12:33;5.53;;;1.53;;
9809;SDS011;4944;52.514;13.192;2023-12-22T12:15:12;7.20;;;1.80;;
9809;SDS011;4944;52.514;13.192;2023-12-22T12:17:43;6.60;;;1.53;;
9809;SDS011;4944;52.514;13.192;2023-12-22T12:20:11;5.20;;;1.90;;
9809;SDS011;4944;52.514;13.192;2023-12-22T12:22:42;5.97;;;1.30;;
9809;SDS011;4944;52.514;13.192;2023-12-22T12:25:10;4.40;;;1.57;;
9809;SDS011;4944;52.514;13.192;2023-12-22T12:27:37;3.60;;;1.50;;
9809;SDS011;4944;52.514;13.192;2023-12-22T12:30:11;5.30;;;1.50;;
9809;SDS011;4944;52.514;13.192;2023-12-22T12:32:43;4.33;;;1.27;;
9809;SDS011;4944;52.514;13.192;2023-12-22T12:35:10;6.40;;;1.37;;
9809;SDS011;4944;52.514;13.192;2023-12-22T12:37:39;5.63;;;1.70;;
9809;SDS011;4944;52.514;13.192;2023-12-22T12:40:07;3.57;;;1.57;;
9809;SDS011;4944;52.514;13.192;2023-12-22T12:42:37;6.07;;;1.70;;
9809;SDS011;4944;52.514;13.192;2023-12-22T12:45:05;3.53;;;1.33;;
9809;SDS011;4944;52.514;13.192;2023-12-22T12:47:33;6.13;;;2.00;;
9809;SDS011;4944;52.514;13.192;2023-12-22T12:50:00;4.20;;;1.80;;
9809;SDS011;4944;52.514;13.192;2023-12-22T12:52:28;2.97;;;1.43;;
9809;SDS011;4944;52.514;13.192;2023-12-22T12:54:56;3.60;;;1.63;;
9809;SDS011;4944;52.514;13.192;2023-12-22T12:57:25;9.17;;;1.70;;
9809;SDS011;4944;52.514;13.192;2023-12-22T12:59:52;10.00;;;2.00;;
9809;SDS011;4944;52.514;13.192;2023-12-22T13:02:19;4.43;;;1.70;;
9809;SDS011;4944;52.514;13.192;2023-12-22T13:04:47;3.27;;;1.30;;
9809;SDS011;4944;52.514;13.192;2023-12-22T13:07:22;6.43;;;2.00;;
9809;SDS011;4944;52.514;13.192;2023-12-22T13:09:50;4.87;;;1.40;;
9809;SDS011;4944;52.514;13.192;2023-12-22T13:12:22;9.50;;;1.87;;
9809;SDS011;4944;52.514;13.192;2023-12-22T13:14:53;7.27;;;1.33;;
9809;SDS011;4944;52.514;13.192;2023-12-22T13:17:20;4.90;;;1.77;;
9809;SDS011;4944;52.514;13.192;2023-12-22T13:19:47;6.07;;;1.50;;
9809;SDS011;4944;52.514;13.192;2023-12-22T13:22:15;5.43;;;2.13;;
9809;SDS011;4944;52.514;13.192;2023-12-22T13:24:43;4.50;;;1.43;;
9809;SDS011;4944;52.514;13.192;2023-12-22T13:27:22;6.43;;;2.00;;
9809;SDS011;4944;52.514;13.192;2023-12-22T13:29:49;4.97;;;1.57;;
9809;SDS011;4944;52.514;13.192;2023-12-22T13:32:17;6.80;;;1.77;;
9809;SDS011;4944;52.514;13.192;2023-12-22T13:34:50;5.50;;;1.70;;
9809;SDS011;4944;52.514;13.192;2023-12-22T13:37:18;5.57;;;1.70;;
9809;SDS011;4944;52.514;13.192;2023-12-22T13:39:45;7.70;;;1.83;;
9809;SDS011;4944;52.514;13.192;2023-12-22T13:42:14;4.10;;;1.90;;
9809;SDS011;4944;52.514;13.192;2023-12-22T13:44:48;8.10;;;1.97;;
9809;SDS011;4944;52.514;13.192;2023-12-22T13:47:19;5.10;;;1.77;;
9809;SDS011;4944;52.514;13.192;2023-12-22T13:49:47;4.70;;;1.80;;
9809;SDS011;4944;52.514;13.192;2023-12-22T13:52:24;5.27;;;1.63;;
9809;SDS011;4944;52.514;13.192;2023-12-22T13:54:52;4.63;;;1.90;;
9809;SDS011;4944;52.514;13.192;2023-12-22T13:57:23;4.37;;;1.63;;
9809;SDS011;4944;52.514;13.192;2023-12-22T13:59:52;5.40;;;1.53;;
9809;SDS011;4944;52.514;13.192;2023-12-22T14:02:20;3.67;;;1.33;;
9809;SDS011;4944;52.514;13.192;2023-12-22T14:04:48;4.43;;;1.13;;
9809;SDS011;4944;52.514;13.192;2023-12-22T14:07:16;4.80;;;1.30;;
9809;SDS011;4944;52.514;13.192;2023-12-22T14:09:43;4.03;;;1.30;;
9809;SDS011;4944;52.514;13.192;2023-12-22T14:12:10;4.50;;;1.27;;
9809;SDS011;4944;52.514;13.192;2023-12-22T14:14:37;4.17;;;1.33;;
9809;SDS011;4944;52.514;13.192;2023-12-22T14:17:06;3.60;;;1.13;;
9809;SDS011;4944;52.514;13.192;2023-12-22T14:19:36;0.97;;;0.80;;
9809;SDS011;4944;52.514;13.192;2023-12-22T14:22:03;1.70;;;0.83;;
9809;SDS011;4944;52.514;13.192;2023-12-22T14:24:30;3.93;;;1.13;;
9809;SDS011;4944;52.514;13.192;2023-12-22T14:26:57;3.03;;;1.20;;
9809;SDS011;4944;52.514;13.192;2023-12-22T14:29:24;2.20;;;1.03;;
9809;SDS011;4944;52.514;13.192;2023-12-22T14:31:54;3.70;;;1.60;;
9809;SDS011;4944;52.514;13.192;2023-12-22T14:34:23;5.17;;;1.63;;
9809;SDS011;4944;52.514;13.192;2023-12-22T14:36:53;4.17;;;1.40;;
9809;SDS011;4944;52.514;13.192;2023-12-22T14:39:20;5.20;;;1.40;;
9809;SDS011;4944;52.514;13.192;2023-12-22T14:41:47;3.00;;;1.23;;
9809;SDS011;4944;52.514;13.192;2023-12-22T14:44:17;3.77;;;1.10;;
9809;SDS011;4944;52.514;13.192;2023-12-22T14:46:46;3.27;;;0.83;;
9809;SDS011;4944;52.514;13.192;2023-12-22T14:49:16;3.47;;;0.90;;
9809;SDS011;4944;52.514;13.192;2023-12-22T14:51:46;5.13;;;1.20;;
9809;SDS011;4944;52.514;13.192;2023-12-22T14:54:17;1.50;;;1.10;;
9809;SDS011;4944;52.514;13.192;2023-12-22T14:56:44;3.43;;;1.10;;
9809;SDS011;4944;52.514;13.192;2023-12-22T14:59:11;2.03;;;1.17;;
9809;SDS011;4944;52.514;13.192;2023-12-22T15:01:39;4.87;;;1.20;;
9809;SDS011;4944;52.514;13.192;2023-12-22T15:04:07;2.57;;;0.80;;
9809;SDS011;4944;52.514;13.192;2023-12-22T15:06:37;2.00;;;1.27;;
9809;SDS011;4944;52.514;13.192;2023-12-22T15:09:05;2.77;;;1.00;;